sensor_id;sensor_type;location;lat;lon;timestamp;P1;durP1;ratioP1;P2;durP2;ratioP2
20008;SDS011;10165;42.662;23.260;2023-03-13T00:01:48;8.53;;;2.90;;
20008;SDS011;10165;42.662;23.260;2023-03-13T00:04:16;6.23;;;3.40;;
20008;SDS011;10165;42.662;23.260;2023-03-13T00:06:43;5.47;;;3.60;;
20008;SDS011;10165;42.662;23.260;2023-03-13T00:09:11;7.90;;;3.87;;
20008;SDS011;10165;42.662;23.260;2023-03-13T00:11:39;8.83;;;3.13;;
20008;SDS011;10165;42.662;23.260;2023-03-13T00:14:06;2.53;;;2.23;;
20008;SDS011;10165;42.662;23.260;2023-03-13T00:16:33;2.93;;;2.40;;
20008;SDS011;10165;42.662;23.260;2023-03-13T00:19:00;1.77;;;1.63;;
20008;SDS011;10165;42.662;23.260;2023-03-13T00:21:29;2.57;;;1.40;;
20008;SDS011;10165;42.662;23.260;2023-03-13T00:23:56;3.63;;;1.90;;
20008;SDS011;10165;42.662;23.260;2023-03-13T00:26:25;2.50;;;1.97;;
20008;SDS011;10165;42.662;23.260;2023-03-13T00:28:53;1.60;;;1.50;;
20008;SDS011;10165;42.662;23.260;2023-03-13T00:31:23;4.60;;;3.10;;
20008;SDS011;10165;42.662;23.260;2023-03-13T00:33:54;4.10;;;2.67;;
20008;SDS011;10165;42.662;23.260;2023-03-13T00:36:28;5.20;;;2.57;;
20008;SDS011;10165;42.662;23.260;2023-03-13T00:38:57;6.90;;;3.53;;
20008;SDS011;10165;42.662;23.260;2023-03-13T00:41:28;7.80;;;4.13;;
20008;SDS011;10165;42.662;23.260;2023-03-13T00:43:56;5.20;;;3.97;;
20008;SDS011;10165;42.662;23.260;2023-03-13T00:46:24;9.67;;;4.93;;
20008;SDS011;10165;42.662;23.260;2023-03-13T00:48:53;11.27;;;5.03;;
20008;SDS011;10165;42.662;23.260;2023-03-13T00:51:20;8.20;;;5.57;;
20008;SDS011;10165;42.662;23.260;2023-03-13T00:53:49;7.00;;;3.27;;
20008;SDS011;10165;42.662;23.260;2023-03-13T00:56:16;12.40;;;5.47;;
20008;SDS011;10165;42.662;23.260;2023-03-13T00:58:44;8.10;;;4.63;;
20008;SDS011;10165;42.662;23.260;2023-03-13T01:01:13;4.60;;;1.97;;
20008;SDS011;10165;42.662;23.260;2023-03-13T01:03:46;2.60;;;1.97;;
20008;SDS011;10165;42.662;23.260;2023-03-13T01:06:16;1.77;;;1.67;;
20008;SDS011;10165;42.662;23.260;2023-03-13T01:08:44;3.27;;;2.23;;
20008;SDS011;10165;42.662;23.260;2023-03-13T01:11:14;2.20;;;2.00;;
20008;SDS011;10165;42.662;23.260;2023-03-13T01:13:43;1.97;;;1.77;;
20008;SDS011;10165;42.662;23.260;2023-03-13T01:16:11;1.70;;;1.60;;
20008;SDS011;10165;42.662;23.260;2023-03-13T01:18:44;2.53;;;2.27;;
20008;SDS011;10165;42.662;23.260;2023-03-13T01:21:13;1.40;;;1.30;;
20008;SDS011;10165;42.662;23.260;2023-03-13T01:23:41;7.13;;;2.37;;
20008;SDS011;10165;42.662;23.260;2023-03-13T01:26:08;6.47;;;3.10;;
20008;SDS011;10165;42.662;23.260;2023-03-13T01:28:35;4.13;;;2.90;;
20008;SDS011;10165;42.662;23.260;2023-03-13T01:31:18;3.50;;;1.97;;
20008;SDS011;10165;42.662;23.260;2023-03-13T01:33:47;3.07;;;1.70;;
20008;SDS011;10165;42.662;23.260;2023-03-13T01:36:15;1.40;;;1.30;;
20008;SDS011;10165;42.662;23.260;2023-03-13T01:38:43;3.73;;;1.83;;
20008;SDS011;10165;42.662;23.260;2023-03-13T01:41:12;3.10;;;2.60;;
20008;SDS011;10165;42.662;23.260;2023-03-13T01:43:39;2.37;;;1.77;;
20008;SDS011;10165;42.662;23.260;2023-03-13T01:48:38;4.83;;;2.30;;
20008;SDS011;10165;42.662;23.260;2023-03-13T01:54:11;4.67;;;2.10;;
20008;SDS011;10165;42.662;23.260;2023-03-13T01:56:55;2.50;;;2.20;;
20008;SDS011;10165;42.662;23.260;2023-03-13T01:59:30;3.87;;;2.27;;
20008;SDS011;10165;42.662;23.260;2023-03-13T02:02:01;2.77;;;2.50;;
20008;SDS011;10165;42.662;23.260;2023-03-13T02:04:30;2.97;;;2.67;;
20008;SDS011;10165;42.662;23.260;2023-03-13T02:07:02;5.20;;;2.77;;
20008;SDS011;10165;42.662;23.260;2023-03-13T02:09:35;3.47;;;2.27;;
20008;SDS011;10165;42.662;23.260;2023-03-13T02:12:07;2.27;;;1.97;;
20008;SDS011;10165;42.662;23.260;2023-03-13T02:14:37;3.20;;;1.67;;
20008;SDS011;10165;42.662;23.260;2023-03-13T02:17:06;3.97;;;2.43;;
20008;SDS011;10165;42.662;23.260;2023-03-13T02:19:46;2.33;;;1.80;;
20008;SDS011;10165;42.662;23.260;2023-03-13T02:24:44;1.87;;;1.70;;
20008;SDS011;10165;42.662;23.260;2023-03-13T02:27:13;2.60;;;2.23;;
20008;SDS011;10165;42.662;23.260;2023-03-13T02:29:40;3.73;;;2.00;;
20008;SDS011;10165;42.662;23.260;2023-03-13T02:32:07;2.37;;;2.10;;
20008;SDS011;10165;42.662;23.260;2023-03-13T02:34:34;4.17;;;2.30;;
20008;SDS011;10165;42.662;23.260;2023-03-13T02:37:05;2.77;;;2.17;;
20008;SDS011;10165;42.662;23.260;2023-03-13T02:39:36;2.00;;;1.90;;
20008;SDS011;10165;42.662;23.260;2023-03-13T02:42:07;3.37;;;1.90;;
20008;SDS011;10165;42.662;23.260;2023-03-13T02:44:38;4.00;;;2.60;;
20008;SDS011;10165;42.662;23.260;2023-03-13T02:47:06;4.83;;;3.00;;
20008;SDS011;10165;42.662;23.260;2023-03-13T02:49:35;4.23;;;2.20;;
20008;SDS011;10165;42.662;23.260;2023-03-13T02:52:09;3.23;;;2.13;;
20008;SDS011;10165;42.662;23.260;2023-03-13T02:54:47;5.00;;;2.70;;
20008;SDS011;10165;42.662;23.260;2023-03-13T02:57:16;5.50;;;2.37;;
20008;SDS011;10165;42.662;23.260;2023-03-13T02:59:42;10.33;;;5.47;;
20008;SDS011;10165;42.662;23.260;2023-03-13T03:02:09;10.77;;;5.10;;
20008;SDS011;10165;42.662;23.260;2023-03-13T03:04:36;4.73;;;2.73;;
20008;SDS011;10165;42.662;23.260;2023-03-13T03:07:02;5.33;;;2.77;;
20008;SDS011;10165;42.662;23.260;2023-03-13T03:09:29;8.73;;;4.10;;
20008;SDS011;10165;42.662;23.260;2023-03-13T03:11:56;3.80;;;2.63;;
20008;SDS011;10165;42.662;23.260;2023-03-13T03:14:22;5.27;;;3.40;;
20008;SDS011;10165;42.662;23.260;2023-03-13T03:16:49;3.37;;;2.80;;
20008;SDS011;10165;42.662;23.260;2023-03-13T03:19:16;7.97;;;4.53;;
20008;SDS011;10165;42.662;23.260;2023-03-13T03:21:42;10.67;;;3.37;;
20008;SDS011;10165;42.662;23.260;2023-03-13T03:24:09;12.57;;;5.07;;
20008;SDS011;10165;42.662;23.260;2023-03-13T03:26:36;8.37;;;2.80;;
20008;SDS011;10165;42.662;23.260;2023-03-13T03:29:03;2.47;;;2.10;;
20008;SDS011;10165;42.662;23.260;2023-03-13T03:31:29;3.30;;;2.50;;
20008;SDS011;10165;42.662;23.260;2023-03-13T03:33:56;2.03;;;1.70;;
20008;SDS011;10165;42.662;23.260;2023-03-13T03:36:23;4.37;;;3.50;;
20008;SDS011;10165;42.662;23.260;2023-03-13T03:38:50;2.90;;;2.13;;
20008;SDS011;10165;42.662;23.260;2023-03-13T03:41:17;3.40;;;2.63;;
20008;SDS011;10165;42.662;23.260;2023-03-13T03:43:45;5.00;;;2.60;;
20008;SDS011;10165;42.662;23.260;2023-03-13T03:46:13;4.27;;;2.27;;
20008;SDS011;10165;42.662;23.260;2023-03-13T03:48:40;2.93;;;2.23;;
20008;SDS011;10165;42.662;23.260;2023-03-13T03:51:07;4.20;;;2.30;;
20008;SDS011;10165;42.662;23.260;2023-03-13T03:53:34;3.00;;;2.20;;
20008;SDS011;10165;42.662;23.260;2023-03-13T03:56:01;2.17;;;1.97;;
20008;SDS011;10165;42.662;23.260;2023-03-13T03:58:27;3.30;;;2.20;;
20008;SDS011;10165;42.662;23.260;2023-03-13T04:00:57;3.10;;;2.63;;
20008;SDS011;10165;42.662;23.260;2023-03-13T04:03:24;3.80;;;2.43;;
20008;SDS011;10165;42.662;23.260;2023-03-13T04:05:51;2.10;;;2.00;;
20008;SDS011;10165;42.662;23.260;2023-03-13T04:08:18;5.77;;;3.77;;
20008;SDS011;10165;42.662;23.260;2023-03-13T04:10:45;4.00;;;3.67;;
20008;SDS011;10165;42.662;23.260;2023-03-13T04:13:12;6.27;;;4.53;;
20008;SDS011;10165;42.662;23.260;2023-03-13T04:15:39;3.40;;;2.83;;
20008;SDS011;10165;42.662;23.260;2023-03-13T04:18:06;3.57;;;2.50;;
20008;SDS011;10165;42.662;23.260;2023-03-13T04:20:33;2.47;;;2.27;;
20008;SDS011;10165;42.662;23.260;2023-03-13T04:23:00;4.10;;;2.00;;
20008;SDS011;10165;42.662;23.260;2023-03-13T04:25:27;5.63;;;2.90;;
20008;SDS011;10165;42.662;23.260;2023-03-13T04:27:54;3.20;;;2.90;;
20008;SDS011;10165;42.662;23.260;2023-03-13T04:30:21;3.47;;;2.53;;
20008;SDS011;10165;42.662;23.260;2023-03-13T04:32:47;3.87;;;2.97;;
20008;SDS011;10165;42.662;23.260;2023-03-13T04:35:16;3.80;;;3.10;;
20008;SDS011;10165;42.662;23.260;2023-03-13T04:37:43;3.63;;;2.83;;
20008;SDS011;10165;42.662;23.260;2023-03-13T04:40:10;6.37;;;3.67;;
20008;SDS011;10165;42.662;23.260;2023-03-13T04:42:39;11.80;;;3.97;;
20008;SDS011;10165;42.662;23.260;2023-03-13T04:45:07;5.10;;;3.57;;
20008;SDS011;10165;42.662;23.260;2023-03-13T04:47:37;11.77;;;4.47;;
20008;SDS011;10165;42.662;23.260;2023-03-13T04:50:04;6.07;;;3.57;;
20008;SDS011;10165;42.662;23.260;2023-03-13T04:52:31;4.07;;;2.77;;
20008;SDS011;10165;42.662;23.260;2023-03-13T04:54:58;2.50;;;2.20;;
20008;SDS011;10165;42.662;23.260;2023-03-13T04:57:24;3.87;;;3.27;;
20008;SDS011;10165;42.662;23.260;2023-03-13T04:59:51;6.37;;;3.20;;
20008;SDS011;10165;42.662;23.260;2023-03-13T05:02:17;3.10;;;2.30;;
20008;SDS011;10165;42.662;23.260;2023-03-13T05:04:44;4.47;;;3.10;;
20008;SDS011;10165;42.662;23.260;2023-03-13T05:07:11;4.27;;;3.23;;
20008;SDS011;10165;42.662;23.260;2023-03-13T05:09:37;2.13;;;2.03;;
20008;SDS011;10165;42.662;23.260;2023-03-13T05:12:04;3.20;;;2.43;;
20008;SDS011;10165;42.662;23.260;2023-03-13T05:14:31;4.70;;;3.30;;
20008;SDS011;10165;42.662;23.260;2023-03-13T05:16:57;7.83;;;3.43;;
20008;SDS011;10165;42.662;23.260;2023-03-13T05:19:24;7.23;;;2.80;;
20008;SDS011;10165;42.662;23.260;2023-03-13T05:21:51;5.73;;;3.40;;
20008;SDS011;10165;42.662;23.260;2023-03-13T05:24:17;3.73;;;2.93;;
20008;SDS011;10165;42.662;23.260;2023-03-13T05:26:44;5.37;;;2.87;;
20008;SDS011;10165;42.662;23.260;2023-03-13T05:29:10;4.30;;;3.37;;
20008;SDS011;10165;42.662;23.260;2023-03-13T05:31:37;3.90;;;3.50;;
20008;SDS011;10165;42.662;23.260;2023-03-13T05:34:04;2.53;;;2.33;;
20008;SDS011;10165;42.662;23.260;2023-03-13T05:36:30;3.23;;;2.63;;
20008;SDS011;10165;42.662;23.260;2023-03-13T05:38:57;3.43;;;2.53;;
20008;SDS011;10165;42.662;23.260;2023-03-13T05:41:24;5.00;;;3.20;;
20008;SDS011;10165;42.662;23.260;2023-03-13T05:43:50;3.70;;;3.00;;
20008;SDS011;10165;42.662;23.260;2023-03-13T05:46:17;4.77;;;2.63;;
20008;SDS011;10165;42.662;23.260;2023-03-13T05:48:44;3.37;;;2.83;;
20008;SDS011;10165;42.662;23.260;2023-03-13T05:51:12;7.67;;;3.60;;
20008;SDS011;10165;42.662;23.260;2023-03-13T05:53:38;3.97;;;2.80;;
20008;SDS011;10165;42.662;23.260;2023-03-13T05:56:05;7.87;;;4.43;;
20008;SDS011;10165;42.662;23.260;2023-03-13T05:58:32;3.43;;;3.13;;
20008;SDS011;10165;42.662;23.260;2023-03-13T06:00:58;4.33;;;3.70;;
20008;SDS011;10165;42.662;23.260;2023-03-13T06:03:30;5.40;;;4.10;;
20008;SDS011;10165;42.662;23.260;2023-03-13T06:05:57;9.37;;;5.33;;
20008;SDS011;10165;42.662;23.260;2023-03-13T06:08:24;5.63;;;3.80;;
20008;SDS011;10165;42.662;23.260;2023-03-13T06:10:51;7.73;;;4.23;;
20008;SDS011;10165;42.662;23.260;2023-03-13T06:13:17;8.57;;;4.17;;
20008;SDS011;10165;42.662;23.260;2023-03-13T06:15:55;3.13;;;2.77;;
20008;SDS011;10165;42.662;23.260;2023-03-13T06:18:23;7.67;;;3.50;;
20008;SDS011;10165;42.662;23.260;2023-03-13T06:20:54;4.60;;;3.37;;
20008;SDS011;10165;42.662;23.260;2023-03-13T06:23:25;4.07;;;3.00;;
20008;SDS011;10165;42.662;23.260;2023-03-13T06:25:52;5.67;;;2.97;;
20008;SDS011;10165;42.662;23.260;2023-03-13T06:28:19;3.27;;;3.00;;
20008;SDS011;10165;42.662;23.260;2023-03-13T06:30:46;4.03;;;2.37;;
20008;SDS011;10165;42.662;23.260;2023-03-13T06:33:13;4.47;;;3.73;;
20008;SDS011;10165;42.662;23.260;2023-03-13T06:35:40;4.90;;;3.40;;
20008;SDS011;10165;42.662;23.260;2023-03-13T06:38:22;9.83;;;3.33;;
20008;SDS011;10165;42.662;23.260;2023-03-13T06:40:49;7.20;;;3.20;;
20008;SDS011;10165;42.662;23.260;2023-03-13T06:43:17;5.17;;;3.90;;
20008;SDS011;10165;42.662;23.260;2023-03-13T06:45:44;5.60;;;3.30;;
20008;SDS011;10165;42.662;23.260;2023-03-13T06:48:11;2.93;;;2.47;;
20008;SDS011;10165;42.662;23.260;2023-03-13T06:50:38;4.10;;;3.70;;
20008;SDS011;10165;42.662;23.260;2023-03-13T06:53:04;6.47;;;4.00;;
20008;SDS011;10165;42.662;23.260;2023-03-13T06:55:31;6.23;;;4.17;;
20008;SDS011;10165;42.662;23.260;2023-03-13T06:57:58;10.23;;;6.27;;
20008;SDS011;10165;42.662;23.260;2023-03-13T07:00:25;7.37;;;3.80;;
20008;SDS011;10165;42.662;23.260;2023-03-13T07:02:51;10.60;;;4.53;;
20008;SDS011;10165;42.662;23.260;2023-03-13T07:05:19;6.17;;;4.73;;
20008;SDS011;10165;42.662;23.260;2023-03-13T07:07:45;5.67;;;4.27;;
20008;SDS011;10165;42.662;23.260;2023-03-13T07:10:12;7.33;;;4.47;;
20008;SDS011;10165;42.662;23.260;2023-03-13T07:12:39;6.00;;;3.50;;
20008;SDS011;10165;42.662;23.260;2023-03-13T07:15:06;6.10;;;3.77;;
20008;SDS011;10165;42.662;23.260;2023-03-13T07:17:33;6.57;;;4.37;;
20008;SDS011;10165;42.662;23.260;2023-03-13T07:20:00;7.93;;;5.10;;
20008;SDS011;10165;42.662;23.260;2023-03-13T07:22:27;7.20;;;4.50;;
20008;SDS011;10165;42.662;23.260;2023-03-13T07:24:54;8.00;;;4.63;;
20008;SDS011;10165;42.662;23.260;2023-03-13T07:27:21;6.20;;;4.33;;
20008;SDS011;10165;42.662;23.260;2023-03-13T07:29:48;7.93;;;4.23;;
20008;SDS011;10165;42.662;23.260;2023-03-13T07:32:15;8.80;;;4.60;;
20008;SDS011;10165;42.662;23.260;2023-03-13T07:34:42;8.77;;;6.50;;
20008;SDS011;10165;42.662;23.260;2023-03-13T07:37:13;8.30;;;4.77;;
20008;SDS011;10165;42.662;23.260;2023-03-13T07:39:41;8.70;;;4.60;;
20008;SDS011;10165;42.662;23.260;2023-03-13T07:42:11;7.40;;;5.00;;
20008;SDS011;10165;42.662;23.260;2023-03-13T07:44:38;4.60;;;3.07;;
20008;SDS011;10165;42.662;23.260;2023-03-13T07:47:04;8.60;;;3.80;;
20008;SDS011;10165;42.662;23.260;2023-03-13T07:49:32;4.90;;;3.27;;
20008;SDS011;10165;42.662;23.260;2023-03-13T07:52:00;5.57;;;3.40;;
20008;SDS011;10165;42.662;23.260;2023-03-13T07:54:27;5.27;;;3.17;;
20008;SDS011;10165;42.662;23.260;2023-03-13T07:56:54;7.37;;;3.63;;
20008;SDS011;10165;42.662;23.260;2023-03-13T07:59:20;5.67;;;3.27;;
20008;SDS011;10165;42.662;23.260;2023-03-13T08:01:47;6.87;;;4.73;;
20008;SDS011;10165;42.662;23.260;2023-03-13T08:04:14;7.07;;;4.00;;
20008;SDS011;10165;42.662;23.260;2023-03-13T08:06:41;10.87;;;5.20;;
20008;SDS011;10165;42.662;23.260;2023-03-13T08:09:08;14.67;;;6.10;;
20008;SDS011;10165;42.662;23.260;2023-03-13T08:11:36;10.53;;;4.83;;
20008;SDS011;10165;42.662;23.260;2023-03-13T08:14:05;4.90;;;3.73;;
20008;SDS011;10165;42.662;23.260;2023-03-13T08:16:33;9.77;;;3.97;;
20008;SDS011;10165;42.662;23.260;2023-03-13T08:19:01;16.10;;;4.80;;
20008;SDS011;10165;42.662;23.260;2023-03-13T08:21:32;8.03;;;4.13;;
20008;SDS011;10165;42.662;23.260;2023-03-13T08:24:01;6.70;;;3.90;;
20008;SDS011;10165;42.662;23.260;2023-03-13T08:26:31;4.20;;;3.73;;
20008;SDS011;10165;42.662;23.260;2023-03-13T08:29:00;5.17;;;3.93;;
20008;SDS011;10165;42.662;23.260;2023-03-13T08:31:33;5.60;;;4.00;;
20008;SDS011;10165;42.662;23.260;2023-03-13T08:34:02;8.90;;;5.00;;
20008;SDS011;10165;42.662;23.260;2023-03-13T08:36:33;7.20;;;4.30;;
20008;SDS011;10165;42.662;23.260;2023-03-13T08:39:19;5.10;;;4.17;;
20008;SDS011;10165;42.662;23.260;2023-03-13T08:41:46;9.80;;;3.43;;
20008;SDS011;10165;42.662;23.260;2023-03-13T08:44:14;5.37;;;4.03;;
20008;SDS011;10165;42.662;23.260;2023-03-13T08:46:42;5.57;;;4.00;;
20008;SDS011;10165;42.662;23.260;2023-03-13T08:49:09;8.87;;;3.93;;
20008;SDS011;10165;42.662;23.260;2023-03-13T08:51:37;6.77;;;4.53;;
20008;SDS011;10165;42.662;23.260;2023-03-13T08:54:04;4.63;;;4.03;;
20008;SDS011;10165;42.662;23.260;2023-03-13T08:56:31;7.50;;;4.70;;
20008;SDS011;10165;42.662;23.260;2023-03-13T08:59:00;7.90;;;4.87;;
20008;SDS011;10165;42.662;23.260;2023-03-13T09:01:30;8.10;;;4.40;;
20008;SDS011;10165;42.662;23.260;2023-03-13T09:03:58;8.13;;;5.10;;
20008;SDS011;10165;42.662;23.260;2023-03-13T09:06:29;4.40;;;4.00;;
20008;SDS011;10165;42.662;23.260;2023-03-13T09:08:57;8.37;;;4.77;;
20008;SDS011;10165;42.662;23.260;2023-03-13T09:11:24;9.50;;;4.70;;
20008;SDS011;10165;42.662;23.260;2023-03-13T09:13:51;8.27;;;4.97;;
20008;SDS011;10165;42.662;23.260;2023-03-13T09:16:21;8.00;;;4.30;;
20008;SDS011;10165;42.662;23.260;2023-03-13T09:18:49;8.63;;;5.57;;
20008;SDS011;10165;42.662;23.260;2023-03-13T09:21:17;9.47;;;5.27;;
20008;SDS011;10165;42.662;23.260;2023-03-13T09:23:46;7.17;;;5.03;;
20008;SDS011;10165;42.662;23.260;2023-03-13T09:26:13;8.43;;;4.63;;
20008;SDS011;10165;42.662;23.260;2023-03-13T09:28:41;6.93;;;4.57;;
20008;SDS011;10165;42.662;23.260;2023-03-13T09:31:09;8.23;;;4.87;;
20008;SDS011;10165;42.662;23.260;2023-03-13T09:33:41;7.83;;;5.10;;
20008;SDS011;10165;42.662;23.260;2023-03-13T09:36:09;5.97;;;4.23;;
20008;SDS011;10165;42.662;23.260;2023-03-13T09:38:37;7.80;;;5.07;;
20008;SDS011;10165;42.662;23.260;2023-03-13T09:41:18;6.60;;;4.73;;
20008;SDS011;10165;42.662;23.260;2023-03-13T09:49:25;7.70;;;4.70;;
20008;SDS011;10165;42.662;23.260;2023-03-13T09:52:03;8.17;;;5.10;;
20008;SDS011;10165;42.662;23.260;2023-03-13T09:54:51;7.47;;;5.10;;
20008;SDS011;10165;42.662;23.260;2023-03-13T09:57:32;6.13;;;4.63;;
20008;SDS011;10165;42.662;23.260;2023-03-13T10:02:39;7.03;;;4.97;;
20008;SDS011;10165;42.662;23.260;2023-03-13T10:05:13;7.73;;;4.97;;
20008;SDS011;10165;42.662;23.260;2023-03-13T10:07:45;6.17;;;4.23;;
20008;SDS011;10165;42.662;23.260;2023-03-13T10:10:13;22.67;;;5.37;;
20008;SDS011;10165;42.662;23.260;2023-03-13T10:13:32;7.17;;;5.70;;
20008;SDS011;10165;42.662;23.260;2023-03-13T10:16:09;15.53;;;5.10;;
20008;SDS011;10165;42.662;23.260;2023-03-13T10:18:47;5.83;;;5.03;;
20008;SDS011;10165;42.662;23.260;2023-03-13T10:21:19;8.43;;;5.87;;
20008;SDS011;10165;42.662;23.260;2023-03-13T10:23:49;13.33;;;5.77;;
20008;SDS011;10165;42.662;23.260;2023-03-13T10:26:26;10.03;;;5.23;;
20008;SDS011;10165;42.662;23.260;2023-03-13T10:28:55;9.17;;;5.43;;
20008;SDS011;10165;42.662;23.260;2023-03-13T10:31:30;9.37;;;5.73;;
20008;SDS011;10165;42.662;23.260;2023-03-13T10:34:04;8.07;;;4.97;;
20008;SDS011;10165;42.662;23.260;2023-03-13T10:36:42;6.47;;;4.80;;
20008;SDS011;10165;42.662;23.260;2023-03-13T10:39:17;11.90;;;6.20;;
20008;SDS011;10165;42.662;23.260;2023-03-13T10:41:48;12.00;;;5.33;;
20008;SDS011;10165;42.662;23.260;2023-03-13T10:46:44;7.93;;;5.50;;
20008;SDS011;10165;42.662;23.260;2023-03-13T10:49:31;9.70;;;5.83;;
20008;SDS011;10165;42.662;23.260;2023-03-13T10:52:00;8.60;;;5.43;;
20008;SDS011;10165;42.662;23.260;2023-03-13T10:54:29;9.33;;;5.83;;
20008;SDS011;10165;42.662;23.260;2023-03-13T10:57:22;9.50;;;6.03;;
20008;SDS011;10165;42.662;23.260;2023-03-13T10:59:57;10.93;;;5.77;;
20008;SDS011;10165;42.662;23.260;2023-03-13T11:02:31;12.63;;;6.70;;
20008;SDS011;10165;42.662;23.260;2023-03-13T11:07:51;10.00;;;6.57;;
20008;SDS011;10165;42.662;23.260;2023-03-13T11:10:23;10.23;;;6.40;;
20008;SDS011;10165;42.662;23.260;2023-03-13T11:12:54;10.07;;;6.40;;
20008;SDS011;10165;42.662;23.260;2023-03-13T11:15:29;8.53;;;6.10;;
20008;SDS011;10165;42.662;23.260;2023-03-13T11:18:03;8.77;;;5.63;;
20008;SDS011;10165;42.662;23.260;2023-03-13T11:20:36;11.73;;;5.57;;
20008;SDS011;10165;42.662;23.260;2023-03-13T11:33:58;12.50;;;7.30;;
20008;SDS011;10165;42.662;23.260;2023-03-13T11:36:35;9.03;;;7.20;;
20008;SDS011;10165;42.662;23.260;2023-03-13T11:42:06;18.63;;;6.67;;
20008;SDS011;10165;42.662;23.260;2023-03-13T12:03:38;8.87;;;6.33;;
20008;SDS011;10165;42.662;23.260;2023-03-13T12:06:19;12.37;;;6.60;;
20008;SDS011;10165;42.662;23.260;2023-03-13T12:11:38;8.40;;;6.53;;
20008;SDS011;10165;42.662;23.260;2023-03-13T12:14:14;11.43;;;6.57;;
20008;SDS011;10165;42.662;23.260;2023-03-13T12:16:52;8.90;;;6.60;;
20008;SDS011;10165;42.662;23.260;2023-03-13T12:19:29;12.60;;;7.13;;
20008;SDS011;10165;42.662;23.260;2023-03-13T12:22:11;11.63;;;6.70;;
20008;SDS011;10165;42.662;23.260;2023-03-13T12:24:47;9.80;;;6.03;;
20008;SDS011;10165;42.662;23.260;2023-03-13T12:27:24;11.07;;;7.10;;
20008;SDS011;10165;42.662;23.260;2023-03-13T12:30:00;10.27;;;6.80;;
20008;SDS011;10165;42.662;23.260;2023-03-13T12:32:39;17.13;;;7.47;;
20008;SDS011;10165;42.662;23.260;2023-03-13T12:38:13;12.40;;;7.00;;
20008;SDS011;10165;42.662;23.260;2023-03-13T12:43:50;14.87;;;7.27;;
20008;SDS011;10165;42.662;23.260;2023-03-13T12:54:46;13.23;;;7.40;;
20008;SDS011;10165;42.662;23.260;2023-03-13T13:00:06;10.40;;;7.03;;
20008;SDS011;10165;42.662;23.260;2023-03-13T13:02:43;18.50;;;6.53;;
20008;SDS011;10165;42.662;23.260;2023-03-13T13:05:16;12.40;;;7.70;;
20008;SDS011;10165;42.662;23.260;2023-03-13T13:07:53;10.77;;;7.33;;
20008;SDS011;10165;42.662;23.260;2023-03-13T13:10:25;10.83;;;6.90;;
20008;SDS011;10165;42.662;23.260;2023-03-13T13:15:45;11.50;;;6.63;;
20008;SDS011;10165;42.662;23.260;2023-03-13T13:18:26;11.27;;;7.17;;
20008;SDS011;10165;42.662;23.260;2023-03-13T13:23:33;9.20;;;6.37;;
20008;SDS011;10165;42.662;23.260;2023-03-13T13:29:50;9.43;;;6.33;;
20008;SDS011;10165;42.662;23.260;2023-03-13T13:42:35;14.37;;;8.73;;
20008;SDS011;10165;42.662;23.260;2023-03-13T13:45:00;15.87;;;6.57;;
20008;SDS011;10165;42.662;23.260;2023-03-13T13:47:30;9.37;;;7.60;;
20008;SDS011;10165;42.662;23.260;2023-03-13T13:49:59;10.97;;;6.97;;
20008;SDS011;10165;42.662;23.260;2023-03-13T13:54:58;12.30;;;7.90;;
20008;SDS011;10165;42.662;23.260;2023-03-13T13:57:26;13.20;;;7.53;;
20008;SDS011;10165;42.662;23.260;2023-03-13T14:02:54;12.43;;;6.93;;
20008;SDS011;10165;42.662;23.260;2023-03-13T14:05:23;11.23;;;7.20;;
20008;SDS011;10165;42.662;23.260;2023-03-13T14:11:19;9.83;;;5.97;;
20008;SDS011;10165;42.662;23.260;2023-03-13T14:14:18;16.00;;;5.93;;
20008;SDS011;10165;42.662;23.260;2023-03-13T14:16:55;10.80;;;6.33;;
20008;SDS011;10165;42.662;23.260;2023-03-13T14:22:02;11.90;;;7.03;;
20008;SDS011;10165;42.662;23.260;2023-03-13T14:24:33;11.07;;;6.67;;
20008;SDS011;10165;42.662;23.260;2023-03-13T14:27:00;12.87;;;7.07;;
20008;SDS011;10165;42.662;23.260;2023-03-13T14:29:27;9.77;;;7.23;;
20008;SDS011;10165;42.662;23.260;2023-03-13T14:31:55;10.57;;;6.87;;
20008;SDS011;10165;42.662;23.260;2023-03-13T14:34:24;12.77;;;7.00;;
20008;SDS011;10165;42.662;23.260;2023-03-13T14:36:56;15.17;;;6.83;;
20008;SDS011;10165;42.662;23.260;2023-03-13T14:39:43;8.40;;;6.40;;
20008;SDS011;10165;42.662;23.260;2023-03-13T14:42:12;14.33;;;7.27;;
20008;SDS011;10165;42.662;23.260;2023-03-13T14:44:40;11.40;;;6.93;;
20008;SDS011;10165;42.662;23.260;2023-03-13T14:47:22;13.90;;;6.73;;
20008;SDS011;10165;42.662;23.260;2023-03-13T14:49:58;9.80;;;6.47;;
20008;SDS011;10165;42.662;23.260;2023-03-13T14:52:27;10.77;;;6.20;;
20008;SDS011;10165;42.662;23.260;2023-03-13T14:54:57;8.23;;;5.50;;
20008;SDS011;10165;42.662;23.260;2023-03-13T14:57:30;10.37;;;6.37;;
20008;SDS011;10165;42.662;23.260;2023-03-13T15:03:12;12.03;;;7.33;;
20008;SDS011;10165;42.662;23.260;2023-03-13T15:06:04;9.53;;;6.43;;
20008;SDS011;10165;42.662;23.260;2023-03-13T15:08:34;14.40;;;7.03;;
20008;SDS011;10165;42.662;23.260;2023-03-13T15:11:02;15.60;;;7.13;;
20008;SDS011;10165;42.662;23.260;2023-03-13T15:13:43;12.10;;;5.67;;
20008;SDS011;10165;42.662;23.260;2023-03-13T15:16:14;16.50;;;6.50;;
20008;SDS011;10165;42.662;23.260;2023-03-13T15:18:45;10.30;;;6.47;;
20008;SDS011;10165;42.662;23.260;2023-03-13T15:23:39;12.47;;;7.20;;
20008;SDS011;10165;42.662;23.260;2023-03-13T15:26:07;11.23;;;7.23;;
20008;SDS011;10165;42.662;23.260;2023-03-13T15:28:34;13.97;;;6.60;;
20008;SDS011;10165;42.662;23.260;2023-03-13T15:31:00;15.23;;;8.27;;
20008;SDS011;10165;42.662;23.260;2023-03-13T15:33:27;10.73;;;6.77;;
20008;SDS011;10165;42.662;23.260;2023-03-13T15:35:55;14.97;;;8.83;;
20008;SDS011;10165;42.662;23.260;2023-03-13T15:38:25;14.27;;;7.47;;
20008;SDS011;10165;42.662;23.260;2023-03-13T15:40:52;11.70;;;6.43;;
20008;SDS011;10165;42.662;23.260;2023-03-13T15:43:20;17.03;;;7.50;;
20008;SDS011;10165;42.662;23.260;2023-03-13T15:45:48;8.23;;;6.30;;
20008;SDS011;10165;42.662;23.260;2023-03-13T15:48:18;8.17;;;6.17;;
20008;SDS011;10165;42.662;23.260;2023-03-13T15:50:48;7.50;;;4.90;;
20008;SDS011;10165;42.662;23.260;2023-03-13T15:53:17;12.00;;;5.77;;
20008;SDS011;10165;42.662;23.260;2023-03-13T15:55:46;8.70;;;5.43;;
20008;SDS011;10165;42.662;23.260;2023-03-13T15:58:14;8.73;;;5.40;;
20008;SDS011;10165;42.662;23.260;2023-03-13T16:00:42;11.27;;;5.57;;
20008;SDS011;10165;42.662;23.260;2023-03-13T16:03:15;14.67;;;7.23;;
20008;SDS011;10165;42.662;23.260;2023-03-13T16:05:45;14.90;;;8.93;;
20008;SDS011;10165;42.662;23.260;2023-03-13T16:08:46;21.80;;;10.27;;
20008;SDS011;10165;42.662;23.260;2023-03-13T16:11:05;24.73;;;11.13;;
20008;SDS011;10165;42.662;23.260;2023-03-13T16:13:32;15.67;;;9.07;;
20008;SDS011;10165;42.662;23.260;2023-03-13T16:15:59;13.77;;;8.53;;
20008;SDS011;10165;42.662;23.260;2023-03-13T16:18:25;10.53;;;7.53;;
20008;SDS011;10165;42.662;23.260;2023-03-13T16:20:52;11.20;;;7.60;;
20008;SDS011;10165;42.662;23.260;2023-03-13T16:23:19;10.37;;;7.03;;
20008;SDS011;10165;42.662;23.260;2023-03-13T16:25:46;9.07;;;7.57;;
20008;SDS011;10165;42.662;23.260;2023-03-13T16:28:14;11.13;;;7.03;;
20008;SDS011;10165;42.662;23.260;2023-03-13T16:30:44;17.93;;;8.53;;
20008;SDS011;10165;42.662;23.260;2023-03-13T16:33:12;28.60;;;10.03;;
20008;SDS011;10165;42.662;23.260;2023-03-13T16:35:39;12.53;;;6.87;;
20008;SDS011;10165;42.662;23.260;2023-03-13T16:38:08;12.73;;;7.03;;